Time;durP1;ratioP1;P1;durP2;ratioP2;P2;SDS_P1;SDS_P2;PMS_P1;PMS_P2;Temp;Humidity;BMP_temperature;BMP_pressure;BME280_temperature;BME280_humidity;BME280_pressure;Samples;Min_cycle;Max_cycle;Signal;HPM_P1;HPM_P2
2022/06/06 00:00:47;;;;;;;25.17;12.05;;;15.10;99.90;;;;;;5059197;28;20049;-83
2022/06/06 00:03:15;;;;;;;27.02;12.27;;;15.10;99.90;;;;;;5075716;28;20044;-83
2022/06/06 00:05:47;;;;;;;51.35;12.98;;;15.10;99.90;;;;;;5076463;28;20052;-83
2022/06/06 00:08:13;;;;;;;20.63;11.68;;;15.10;99.90;;;;;;5075502;28;20139;-82
2022/06/06 00:10:40;;;;;;;20.35;11.18;;;15.00;99.90;;;;;;5075664;28;20048;-84
2022/06/06 00:13:07;;;;;;;22.80;12.45;;;15.00;99.90;;;;;;5076035;28;20080;-83
2022/06/06 00:15:34;;;;;;;21.83;12.32;;;15.00;99.90;;;;;;5076043;28;20466;-83
2022/06/06 00:18:01;;;;;;;22.77;12.05;;;15.00;99.90;;;;;;5059041;28;20044;-87
2022/06/06 00:20:27;;;;;;;24.85;13.60;;;15.00;99.90;;;;;;5076165;28;20463;-83
2022/06/06 00:22:52;;;;;;;22.70;13.55;;;15.10;99.90;;;;;;5074598;28;20093;-83
2022/06/06 00:25:18;;;;;;;20.00;13.05;;;15.00;99.90;;;;;;5076414;28;20052;-83
2022/06/06 00:27:44;;;;;;;19.08;12.05;;;15.10;99.90;;;;;;5075492;28;20089;-81
2022/06/06 00:30:10;;;;;;;12.55;10.05;;;15.00;99.90;;;;;;5075163;28;20048;-83
2022/06/06 00:35:20;;;;;;;13.40;9.10;;;15.00;99.90;;;;;;5076096;28;20060;-82
2022/06/06 00:37:47;;;;;;;17.63;10.02;;;14.90;99.90;;;;;;5058529;28;20049;-82
2022/06/06 00:40:15;;;;;;;13.18;9.30;;;14.90;99.90;;;;;;5075297;28;20127;-83
2022/06/06 00:42:42;;;;;;;24.45;11.95;;;14.80;99.90;;;;;;5058616;28;20045;-84
2022/06/06 00:45:20;;;;;;;17.38;10.10;;;14.80;99.90;;;;;;5075040;28;20052;-83
2022/06/06 00:48:04;;;;;;;14.10;9.02;;;14.80;99.90;;;;;;5074746;28;20056;-83
2022/06/06 00:50:38;;;;;;;13.45;8.90;;;14.80;99.90;;;;;;5075132;28;20079;-83
2022/06/06 00:53:06;;;;;;;12.10;8.10;;;14.80;99.90;;;;;;5074944;28;20401;-83
2022/06/06 00:55:36;;;;;;;11.95;8.18;;;14.80;99.90;;;;;;5074920;28;20045;-84
2022/06/06 00:58:09;;;;;;;12.02;8.05;;;14.80;99.90;;;;;;5058198;28;20098;-82
2022/06/06 01:00:37;;;;;;;16.52;9.30;;;14.80;99.90;;;;;;5074898;28;20127;-83
2022/06/06 01:03:05;;;;;;;16.70;9.63;;;14.80;99.90;;;;;;5075157;28;20054;-84
2022/06/06 01:05:32;;;;;;;11.05;7.80;;;14.80;99.90;;;;;;5074179;28;20586;-82
2022/06/06 01:07:58;;;;;;;11.38;8.18;;;14.80;99.90;;;;;;5058046;28;20102;-83
2022/06/06 01:10:24;;;;;;;12.48;9.27;;;14.90;99.90;;;;;;5074341;28;20052;-82
2022/06/06 01:12:53;;;;;;;19.05;10.48;;;14.80;99.90;;;;;;5074509;28;20048;-83
2022/06/06 01:15:22;;;;;;;24.52;11.93;;;14.90;99.90;;;;;;5074040;28;20076;-82
2022/06/06 01:17:51;;;;;;;15.00;10.18;;;14.80;99.90;;;;;;5074610;28;20037;-82
2022/06/06 01:20:35;;;;;;;16.55;11.00;;;14.80;99.90;;;;;;5057501;28;20449;-82
2022/06/06 01:23:32;;;;;;;23.40;12.48;;;14.80;99.90;;;;;;5074304;28;20501;-83
2022/06/06 01:26:18;;;;;;;18.73;11.25;;;14.80;99.90;;;;;;5057778;28;20067;-82
2022/06/06 01:29:02;;;;;;;18.42;11.32;;;14.80;99.90;;;;;;5075347;28;20519;-83
2022/06/06 01:31:36;;;;;;;18.45;12.70;;;14.90;99.90;;;;;;5073951;28;20486;-82
2022/06/06 01:34:05;;;;;;;21.33;13.07;;;14.80;99.90;;;;;;5073432;28;20056;-86
2022/06/06 01:36:33;;;;;;;22.23;15.23;;;14.80;99.90;;;;;;5074239;28;20059;-82
2022/06/06 01:39:04;;;;;;;38.10;19.55;;;14.80;99.90;;;;;;5074054;28;20080;-81
2022/06/06 01:41:40;;;;;;;52.92;23.60;;;14.80;99.90;;;;;;5074137;28;20044;-83
2022/06/06 01:44:18;;;;;;;58.63;25.63;;;14.90;99.90;;;;;;5057490;28;20182;-82
2022/06/06 01:46:44;;;;;;;52.22;26.70;;;14.80;99.90;;;;;;5073507;28;20474;-83
2022/06/06 01:49:12;;;;;;;53.67;26.13;;;14.80;99.90;;;;;;5057363;28;20044;-82
2022/06/06 01:51:38;;;;;;;59.83;26.27;;;14.80;99.90;;;;;;5056735;28;20091;-83
2022/06/06 01:54:03;;;;;;;57.13;26.38;;;14.70;99.90;;;;;;5073728;28;20133;-90
2022/06/06 01:56:35;;;;;;;64.63;28.65;;;14.60;99.90;;;;;;5074737;28;20551;-84
2022/06/06 01:59:01;;;;;;;62.10;30.25;;;14.60;99.90;;;;;;5056905;28;20048;-84
2022/06/06 02:01:26;;;;;;;72.45;32.50;;;14.50;99.90;;;;;;5073116;28;20098;-82
2022/06/06 02:03:53;;;;;;;64.97;28.05;;;14.50;99.90;;;;;;5073403;28;20048;-83
2022/06/06 02:06:19;;;;;;;69.28;30.98;;;14.50;99.90;;;;;;5056791;28;20071;-83
2022/06/06 02:08:45;;;;;;;97.50;36.00;;;14.40;99.90;;;;;;5072826;28;20060;-84
2022/06/06 02:11:11;;;;;;;90.05;32.17;;;14.40;99.90;;;;;;5056424;28;20437;-82
2022/06/06 02:13:38;;;;;;;83.78;32.88;;;14.40;99.90;;;;;;5056650;28;20043;-84
2022/06/06 02:16:04;;;;;;;74.15;30.08;;;14.40;99.90;;;;;;5072496;28;20056;-85
2022/06/06 02:18:30;;;;;;;73.00;29.30;;;14.40;99.90;;;;;;5072720;28;20044;-85
2022/06/06 02:20:55;;;;;;;57.35;26.63;;;14.40;99.90;;;;;;5073151;28;20052;-83
2022/06/06 02:23:21;;;;;;;82.43;29.80;;;14.40;99.90;;;;;;5056413;28;20086;-84
2022/06/06 02:25:47;;;;;;;49.25;23.90;;;14.20;99.90;;;;;;5072957;28;20090;-84
2022/06/06 02:28:15;;;;;;;57.53;24.05;;;14.30;99.90;;;;;;5073984;28;20409;-84
2022/06/06 02:30:42;;;;;;;60.88;24.90;;;14.30;99.90;;;;;;5072592;28;20052;-82
2022/06/06 02:33:08;;;;;;;59.50;24.13;;;14.10;99.90;;;;;;5072516;28;20052;-82
2022/06/06 02:35:37;;;;;;;63.03;23.60;;;14.20;99.90;;;;;;5073688;28;20052;-83
2022/06/06 02:38:03;;;;;;;62.78;23.50;;;14.20;99.90;;;;;;5056491;28;20056;-82
2022/06/06 02:40:30;;;;;;;77.13;27.52;;;14.20;99.90;;;;;;5056220;28;20056;-83
2022/06/06 02:42:57;;;;;;;78.93;27.38;;;14.10;99.90;;;;;;5072913;28;20049;-85
2022/06/06 02:45:22;;;;;;;85.15;28.73;;;14.10;99.90;;;;;;5072574;28;20098;-82
2022/06/06 02:47:53;;;;;;;101.47;29.73;;;14.00;99.90;;;;;;5073085;28;20055;-82
2022/06/06 02:50:21;;;;;;;;;;;14.00;99.90;;;;;;5072959;28;20052;-85
2022/06/06 02:52:46;;;;;;;98.07;28.80;;;14.00;99.90;;;;;;5073475;28;20372;-84
2022/06/06 02:55:14;;;;;;;107.25;31.42;;;14.10;99.90;;;;;;5072360;28;20080;-84
2022/06/06 02:57:42;;;;;;;117.97;31.33;;;14.00;99.90;;;;;;5072479;28;20044;-84
2022/06/06 03:00:11;;;;;;;115.80;32.95;;;13.90;99.90;;;;;;5055499;28;20044;-83
2022/06/06 03:02:37;;;;;;;79.38;29.55;;;13.90;99.90;;;;;;5071920;28;20048;-84
2022/06/06 03:05:03;;;;;;;92.05;29.10;;;14.00;99.90;;;;;;5055741;28;20109;-84
2022/06/06 03:08:13;;;;;;;99.65;29.98;;;13.90;99.90;;;;;;5072148;28;20093;-86
2022/06/06 03:11:14;;;;;;;57.88;21.73;;;13.90;99.90;;;;;;5054225;28;20106;-83
2022/06/06 03:13:45;;;;;;;50.17;19.45;;;13.80;99.90;;;;;;5054351;28;20068;-83
2022/06/06 03:22:08;;;;;;;33.72;13.05;;;13.70;99.90;;;;;;5054261;28;20069;-83
2022/06/06 03:25:09;;;;;;;36.55;15.20;;;13.70;99.90;;;;;;5054482;28;20195;-83
2022/06/06 03:28:15;;;;;;;34.25;12.93;;;13.70;99.90;;;;;;4991126;28;20058;-84
2022/06/06 03:31:12;;;;;;;54.88;16.25;;;13.70;99.90;;;;;;4964991;28;20051;-84
2022/06/06 03:33:50;;;;;;;38.03;13.57;;;13.60;99.90;;;;;;4898328;29;20523;-83
2022/06/06 03:36:30;;;;;;;44.75;15.77;;;13.60;99.90;;;;;;4898973;29;20091;-83
2022/06/06 03:39:21;;;;;;;39.15;14.43;;;13.60;99.90;;;;;;4899001;29;20063;-84
2022/06/06 03:42:02;;;;;;;31.58;12.55;;;13.60;99.90;;;;;;4898624;29;20103;-84
2022/06/06 03:44:49;;;;;;;38.33;13.95;;;13.60;99.90;;;;;;4898461;29;20060;-84
2022/06/06 03:47:33;;;;;;;41.40;13.88;;;13.60;99.90;;;;;;4916169;29;20070;-84
2022/06/06 03:50:46;;;;;;;40.53;12.73;;;13.60;99.90;;;;;;4917822;29;20156;-83
2022/06/06 03:53:23;;;;;;;34.05;12.02;;;13.60;99.90;;;;;;4917892;29;20051;-84
2022/06/06 03:56:13;;;;;;;33.63;12.55;;;13.60;99.90;;;;;;4902002;29;20055;-84
2022/06/06 03:58:40;;;;;;;48.00;13.77;;;13.60;99.90;;;;;;4903081;29;20055;-84
2022/06/06 04:01:10;;;;;;;38.05;13.25;;;13.60;99.90;;;;;;4932887;28;20050;-85
2022/06/06 04:03:37;;;;;;;33.10;12.68;;;13.50;99.90;;;;;;4975683;28;20418;-84
2022/06/06 04:06:04;;;;;;;35.72;13.43;;;13.60;99.90;;;;;;4975465;28;20050;-85
2022/06/06 04:08:32;;;;;;;49.80;16.23;;;13.50;99.90;;;;;;4975215;28;20510;-84
2022/06/06 04:11:05;;;;;;;50.20;16.35;;;13.50;99.90;;;;;;4987744;28;20191;-83
2022/06/06 04:13:50;;;;;;;40.42;15.98;;;13.60;99.90;;;;;;5013953;28;20061;-82
2022/06/06 04:16:27;;;;;;;42.10;17.13;;;13.50;99.90;;;;;;4997639;28;20406;-84
2022/06/06 04:18:58;;;;;;;48.53;16.90;;;13.50;99.90;;;;;;5014126;28;20046;-84
2022/06/06 04:21:42;;;;;;;59.03;18.50;;;13.60;99.90;;;;;;5014062;28;20133;-86
2022/06/06 04:24:19;;;;;;;41.58;16.58;;;13.50;99.90;;;;;;5013535;28;20518;-84
2022/06/06 04:27:42;;;;;;;43.55;17.70;;;13.50;99.90;;;;;;5035864;28;20070;-84
2022/06/06 04:30:35;;;;;;;55.55;17.85;;;13.40;99.90;;;;;;5037114;28;20048;-85
2022/06/06 04:33:08;;;;;;;47.63;17.63;;;13.50;99.90;;;;;;4990808;28;20054;-85
2022/06/06 04:36:02;;;;;;;50.20;19.60;;;13.40;99.90;;;;;;4974719;28;20082;-86
2022/06/06 04:38:42;;;;;;;44.88;17.65;;;13.50;99.90;;;;;;4958833;28;20073;-85
2022/06/06 04:41:42;;;;;;;53.53;20.13;;;13.40;99.90;;;;;;4977087;28;20069;-85
2022/06/06 04:44:20;;;;;;;42.08;17.38;;;13.40;99.90;;;;;;4901787;29;20430;-84
2022/06/06 04:47:02;;;;;;;39.63;17.73;;;13.50;99.90;;;;;;4901824;29;20063;-83
2022/06/06 04:49:28;;;;;;;;;;;13.50;99.90;;;;;;4902021;29;20075;-84
2022/06/06 04:51:54;;;;;;;43.70;17.70;;;13.60;99.90;;;;;;4901378;29;19970;-84
2022/06/06 04:54:22;;;;;;;39.70;16.52;;;13.70;99.90;;;;;;4917138;29;20426;-84
2022/06/06 04:56:50;;;;;;;39.83;17.80;;;13.60;99.90;;;;;;4901727;29;20104;-84
2022/06/06 04:59:17;;;;;;;37.35;16.83;;;13.50;99.90;;;;;;4901440;29;20055;-85
2022/06/06 05:01:43;;;;;;;38.38;16.13;;;13.60;99.90;;;;;;4917200;29;20071;-84
2022/06/06 05:04:09;;;;;;;44.90;17.75;;;13.60;99.90;;;;;;4920446;29;20414;-86
2022/06/06 05:06:57;;;;;;;36.20;16.73;;;13.40;99.90;;;;;;4904422;29;20048;-85
2022/06/06 05:09:55;;;;;;;39.63;16.23;;;13.40;99.90;;;;;;4932652;28;20050;-84
2022/06/06 05:12:42;;;;;;;42.95;17.27;;;13.40;99.90;;;;;;4942020;28;20059;-83
2022/06/06 05:15:44;;;;;;;38.55;16.85;;;13.40;99.90;;;;;;4958279;28;20146;-85
2022/06/06 05:18:20;;;;;;;36.92;15.30;;;13.40;99.90;;;;;;4958268;28;20086;-84
2022/06/06 05:20:57;;;;;;;30.42;14.68;;;13.40;99.90;;;;;;4995222;28;20056;-85
2022/06/06 05:23:53;;;;;;;34.90;15.77;;;13.40;99.90;;;;;;5033168;28;20489;-84
2022/06/06 05:26:45;;;;;;;33.55;15.35;;;13.50;99.90;;;;;;5000360;28;20121;-84
2022/06/06 05:29:20;;;;;;;32.40;15.20;;;13.50;99.90;;;;;;5016200;28;20077;-85
2022/06/06 05:32:00;;;;;;;30.55;15.15;;;13.50;99.90;;;;;;5032591;28;20081;-85
2022/06/06 05:34:37;;;;;;;32.50;14.65;;;13.60;99.90;;;;;;5032438;28;20548;-86
2022/06/06 05:37:20;;;;;;;30.08;14.57;;;13.60;99.90;;;;;;5032848;28;20441;-84
2022/06/06 05:39:59;;;;;;;30.38;15.65;;;13.60;99.90;;;;;;5032806;28;20099;-84
2022/06/06 05:42:35;;;;;;;32.80;14.75;;;13.50;99.90;;;;;;5032589;28;20215;-84
2022/06/06 05:45:20;;;;;;;28.80;15.20;;;13.60;99.90;;;;;;5032741;28;20112;-84
2022/06/06 05:47:55;;;;;;;28.90;15.70;;;13.60;99.90;;;;;;5036344;28;20151;-83
2022/06/06 05:50:29;;;;;;;30.52;14.95;;;13.60;99.90;;;;;;5073238;28;20044;-84
2022/06/06 05:53:10;;;;;;;32.75;16.08;;;13.60;99.90;;;;;;5073424;28;20045;-85
2022/06/06 05:56:07;;;;;;;31.75;15.30;;;13.60;99.90;;;;;;5073297;28;20076;-86
2022/06/06 05:58:57;;;;;;;31.50;15.35;;;13.70;99.90;;;;;;5056677;28;20125;-85
2022/06/06 06:01:38;;;;;;;27.17;14.25;;;13.80;99.90;;;;;;5073287;28;20201;-85
2022/06/06 06:04:12;;;;;;;28.05;13.18;;;13.90;99.90;;;;;;5073564;28;20408;-83
2022/06/06 06:06:56;;;;;;;25.17;12.30;;;14.00;99.90;;;;;;5073361;28;20060;-86
2022/06/06 06:09:33;;;;;;;23.98;11.80;;;14.10;99.90;;;;;;5072850;28;20409;-86
2022/06/06 06:12:17;;;;;;;21.02;10.98;;;14.20;99.90;;;;;;5056270;28;20054;-85
2022/06/06 06:14:51;;;;;;;17.27;10.23;;;14.30;99.90;;;;;;5073005;28;20063;-86
2022/06/06 06:17:23;;;;;;;21.73;11.43;;;14.50;99.90;;;;;;5055929;28;20513;-84
2022/06/06 06:20:05;;;;;;;24.00;11.52;;;14.50;99.90;;;;;;5072971;28;20048;-83
2022/06/06 06:22:40;;;;;;;20.38;11.52;;;14.40;99.90;;;;;;5073080;28;20386;-84
2022/06/06 06:25:08;;;;;;;22.05;11.73;;;14.40;99.90;;;;;;5072848;28;20084;-85
2022/06/06 06:27:34;;;;;;;23.08;12.43;;;14.50;99.90;;;;;;5072617;28;20528;-86
2022/06/06 06:30:02;;;;;;;23.05;12.13;;;14.60;99.90;;;;;;5072767;28;20048;-83
2022/06/06 06:33:04;;;;;;;22.52;12.65;;;14.70;99.90;;;;;;5071934;28;20132;-84
2022/06/06 06:36:07;;;;;;;24.38;12.55;;;14.80;99.90;;;;;;5055974;28;20090;-85
2022/06/06 06:39:07;;;;;;;18.58;9.70;;;14.90;99.90;;;;;;5056227;28;20058;-87
2022/06/06 06:41:51;;;;;;;21.33;11.40;;;15.10;99.90;;;;;;5073505;28;20044;-86
2022/06/06 06:44:29;;;;;;;20.13;11.27;;;15.10;99.90;;;;;;5076380;28;20055;-85
2022/06/06 06:46:57;;;;;;;21.70;11.15;;;15.10;99.90;;;;;;5075481;28;20055;-86
2022/06/06 06:49:39;;;;;;;22.35;11.82;;;15.10;99.90;;;;;;5073288;28;20052;-84
2022/06/06 06:52:37;;;;;;;18.90;11.20;;;15.10;99.90;;;;;;5058294;28;20044;-85
2022/06/06 06:55:21;;;;;;;21.98;10.35;;;15.00;99.90;;;;;;5074184;28;20048;-84
2022/06/06 06:58:05;;;;;;;19.73;11.35;;;15.10;99.90;;;;;;5071178;28;20052;-85
2022/06/06 07:00:46;;;;;;;21.75;11.13;;;15.30;99.90;;;;;;5053544;28;20052;-85
2022/06/06 07:09:34;;;;;;;20.25;11.68;;;15.40;99.90;;;;;;5053531;28;20052;-86
2022/06/06 07:12:03;;;;;;;21.40;11.95;;;15.70;99.90;;;;;;5057142;28;20124;-86
2022/06/06 07:14:43;;;;;;;20.42;11.88;;;16.00;99.90;;;;;;5043236;28;20045;-85
2022/06/06 07:17:11;;;;;;;22.95;12.73;;;16.00;99.90;;;;;;5072016;28;20048;-86
2022/06/06 07:19:45;;;;;;;22.92;12.23;;;15.80;99.90;;;;;;5065222;28;20394;-87
2022/06/06 07:22:14;;;;;;;25.65;13.57;;;15.70;99.90;;;;;;5045930;28;20049;-83
2022/06/06 07:24:41;;;;;;;23.17;12.77;;;15.40;99.90;;;;;;5052891;28;20403;-83
2022/06/06 07:27:10;;;;;;;26.55;13.32;;;15.20;99.90;;;;;;5053143;28;20036;-85
2022/06/06 07:29:36;;;;;;;25.92;13.65;;;15.10;99.90;;;;;;5041509;28;20445;-87
2022/06/06 07:32:13;;;;;;;27.42;13.65;;;15.00;99.90;;;;;;5067795;28;20041;-86
2022/06/06 07:35:06;;;;;;;26.77;13.27;;;14.90;99.90;;;;;;5058075;28;20132;-85
2022/06/06 07:37:53;;;;;;;26.92;14.60;;;14.80;99.90;;;;;;5035263;28;20508;-86
2022/06/06 07:40:34;;;;;;;24.55;14.15;;;14.60;99.90;;;;;;5058930;28;20513;-83
2022/06/06 07:43:22;;;;;;;25.02;12.45;;;14.50;99.90;;;;;;5058577;28;20055;-85
2022/06/06 07:45:54;;;;;;;21.85;12.43;;;14.60;99.90;;;;;;5000615;28;20052;-85
2022/06/06 07:48:37;;;;;;;20.98;12.30;;;14.60;99.90;;;;;;5025858;28;20060;-85
2022/06/06 07:51:33;;;;;;;20.02;11.60;;;14.80;99.90;;;;;;5039126;28;20068;-86
2022/06/06 07:54:18;;;;;;;20.88;12.35;;;15.10;99.90;;;;;;4997297;28;20049;-83
2022/06/06 07:57:09;;;;;;;19.55;10.55;;;15.80;99.90;;;;;;5001502;28;20140;-85
2022/06/06 08:00:03;;;;;;;15.40;8.53;;;16.30;99.90;;;;;;5038604;28;20049;-84
2022/06/06 08:03:07;;;;;;;12.27;6.50;;;17.40;99.90;;;;;;5042290;28;20529;-86
2022/06/06 08:05:57;;;;;;;9.95;6.53;;;18.10;99.90;;;;;;5028151;28;20033;-87
2022/06/06 08:08:41;;;;;;;10.13;6.57;;;18.90;99.90;;;;;;5037594;28;20045;-85
2022/06/06 08:11:39;;;;;;;11.38;6.90;;;18.80;99.90;;;;;;5023159;28;20049;-87
2022/06/06 08:14:28;;;;;;;11.65;6.72;;;18.20;99.90;;;;;;5016080;28;20453;-86
2022/06/06 08:17:14;;;;;;;8.75;5.72;;;17.50;99.90;;;;;;5019711;28;20057;-88
2022/06/06 08:19:57;;;;;;;8.18;4.90;;;17.60;99.90;;;;;;5030390;28;20063;-86
2022/06/06 08:22:25;;;;;;;8.30;4.80;;;18.60;99.90;;;;;;5054419;28;20051;-86
2022/06/06 08:24:56;;;;;;;9.15;4.60;;;18.40;99.90;;;;;;5070131;28;20459;-86
2022/06/06 08:27:25;;;;;;;7.03;3.15;;;18.30;99.90;;;;;;5062553;28;20037;-84
2022/06/06 08:29:51;;;;;;;6.85;2.40;;;19.30;99.90;;;;;;5050598;28;20036;-88
2022/06/06 08:32:17;;;;;;;5.75;2.25;;;20.50;99.90;;;;;;5064883;28;20114;-87
2022/06/06 08:34:43;;;;;;;4.38;2.00;;;21.70;99.90;;;;;;5067530;28;20045;-85
2022/06/06 08:37:32;;;;;;;4.05;1.83;;;22.20;99.90;;;;;;5058909;28;20036;-86
2022/06/06 08:40:04;;;;;;;7.38;1.80;;;22.20;99.90;;;;;;5062435;28;20063;-85
2022/06/06 08:42:59;;;;;;;5.75;1.77;;;22.50;99.90;;;;;;5052959;28;20044;-84
2022/06/06 08:45:38;;;;;;;2.72;1.30;;;22.80;99.90;;;;;;5049842;28;20064;-84
2022/06/06 08:48:17;;;;;;;3.63;1.58;;;23.00;95.80;;;;;;5045214;28;20559;-87
2022/06/06 08:51:04;;;;;;;3.63;1.83;;;23.00;99.90;;;;;;5043286;28;20045;-86
2022/06/06 08:53:51;;;;;;;4.68;1.77;;;23.50;98.60;;;;;;5039713;28;20141;-87
2022/06/06 08:56:53;;;;;;;3.80;1.23;;;24.20;99.40;;;;;;5047564;28;20065;-92
2022/06/06 08:59:31;;;;;;;3.67;1.50;;;24.70;95.30;;;;;;5037641;28;20098;-88
2022/06/06 09:02:33;;;;;;;3.47;1.40;;;24.50;95.20;;;;;;5052437;28;20060;-83
2022/06/06 09:05:20;;;;;;;4.25;1.23;;;23.50;94.90;;;;;;5035969;28;20059;-86
2022/06/06 09:08:23;;;;;;;3.55;1.50;;;22.00;99.90;;;;;;5039183;28;20157;-85
2022/06/06 09:11:23;;;;;;;3.30;1.40;;;21.20;99.90;;;;;;5063861;28;20545;-84
2022/06/06 09:14:27;;;;;;;3.67;1.48;;;21.20;99.90;;;;;;5056147;28;20482;-85
2022/06/06 09:17:24;;;;;;;4.05;1.42;;;21.30;99.90;;;;;;5026766;28;20058;-85
2022/06/06 09:20:47;;;;;;;4.22;2.08;;;20.30;99.90;;;;;;5013051;28;20049;-86
2022/06/06 09:23:34;;;;;;;4.70;2.00;;;18.90;99.90;;;;;;4919730;29;20052;-85
2022/06/06 09:26:01;;;;;;;4.55;2.03;;;18.10;99.90;;;;;;4928295;29;20063;-87
2022/06/06 09:28:39;;;;;;;3.83;1.52;;;18.60;99.90;;;;;;4903894;29;20057;-85
2022/06/06 09:31:35;;;;;;;4.82;1.52;;;20.10;99.90;;;;;;4923395;29;20064;-87
2022/06/06 09:34:27;;;;;;;4.85;1.30;;;21.00;99.90;;;;;;4935024;29;20304;-85
2022/06/06 09:36:53;;;;;;;4.80;1.10;;;21.10;99.90;;;;;;4919376;29;20055;-86
2022/06/06 09:40:02;;;;;;;3.38;1.48;;;20.30;99.90;;;;;;4919249;29;20055;-87
2022/06/06 09:42:53;;;;;;;4.57;1.40;;;19.50;99.90;;;;;;4898470;29;20056;-86
2022/06/06 09:45:45;;;;;;;5.05;1.48;;;19.40;99.90;;;;;;4900423;29;20060;-86
2022/06/06 09:48:21;;;;;;;6.60;1.20;;;20.30;99.90;;;;;;4897346;29;20048;-86
2022/06/06 09:50:56;;;;;;;2.78;1.02;;;21.10;99.90;;;;;;4881567;29;20068;-87
2022/06/06 09:53:34;;;;;;;2.83;0.90;;;21.40;99.10;;;;;;4911644;29;20436;-86
2022/06/06 09:59:37;;;;;;;5.20;1.20;;;22.00;90.00;;;;;;5012700;28;20097;-86
2022/06/06 10:03:01;;;;;;;5.28;1.48;;;20.70;99.90;;;;;;4994111;28;20064;-87
2022/06/06 10:05:46;;;;;;;6.18;1.75;;;18.60;99.90;;;;;;4958201;28;20074;-86
2022/06/06 10:08:44;;;;;;;3.38;1.55;;;17.30;99.90;;;;;;4958863;28;20065;-86
2022/06/06 10:11:31;;;;;;;4.85;1.88;;;17.40;99.90;;;;;;4955087;29;20098;-87
2022/06/06 10:14:12;;;;;;;3.00;1.40;;;18.70;99.90;;;;;;4937919;29;20070;-86
2022/06/06 10:16:59;;;;;;;8.25;1.30;;;19.30;99.90;;;;;;4923232;29;20421;-85
2022/06/06 10:19:39;;;;;;;3.55;1.27;;;20.50;99.90;;;;;;4889036;29;20422;-86
2022/06/06 10:22:38;;;;;;;8.43;1.80;;;22.20;99.90;;;;;;4905407;29;20052;-89
2022/06/06 10:25:27;;;;;;;5.07;1.15;;;22.70;99.90;;;;;;4887309;29;20064;-87
2022/06/06 10:28:17;;;;;;;3.90;1.13;;;21.40;98.30;;;;;;4900832;29;20052;-85
2022/06/06 10:30:56;;;;;;;4.63;1.70;;;20.30;99.90;;;;;;4884502;29;20052;-86
2022/06/06 10:33:43;;;;;;;6.50;2.50;;;19.10;99.90;;;;;;4915079;29;20056;-85
2022/06/06 10:36:17;;;;;;;5.03;2.50;;;17.70;99.90;;;;;;4899910;29;20055;-86
2022/06/06 10:39:10;;;;;;;8.30;2.53;;;16.50;99.90;;;;;;4889895;29;20047;-87
2022/06/06 10:41:57;;;;;;;6.18;3.20;;;15.60;99.90;;;;;;4921224;28;20059;-89
2022/06/06 10:44:52;;;;;;;7.57;3.10;;;15.00;99.90;;;;;;4937031;28;20051;-85
2022/06/06 10:47:59;;;;;;;4.30;2.08;;;14.60;99.90;;;;;;4978936;28;20062;-85
2022/06/06 10:50:37;;;;;;;1.48;0.73;;;14.20;99.90;;;;;;4979039;28;20148;-84
2022/06/06 10:53:55;;;;;;;1.42;0.93;;;13.70;99.90;;;;;;4979236;28;20053;-86
2022/06/06 10:56:38;;;;;;;3.40;1.00;;;13.30;99.90;;;;;;4918185;29;20101;-85
2022/06/06 10:59:10;;;;;;;3.88;1.52;;;13.00;99.90;;;;;;4934051;29;20059;-88
2022/06/06 11:02:12;;;;;;;4.05;1.92;;;12.80;99.90;;;;;;4901926;29;20060;-86
2022/06/06 11:05:14;;;;;;;8.38;2.47;;;12.80;99.90;;;;;;4940993;29;20055;-85
2022/06/06 11:07:58;;;;;;;4.65;2.45;;;12.80;99.90;;;;;;4937123;29;20147;-83
2022/06/06 11:10:42;;;;;;;11.73;2.50;;;12.90;99.90;;;;;;4921183;29;20055;-83
2022/06/06 11:13:29;;;;;;;6.65;2.75;;;12.90;99.90;;;;;;4921687;29;20110;-83
2022/06/06 11:16:10;;;;;;;3.28;2.47;;;12.80;99.90;;;;;;4936815;29;20652;-85
2022/06/06 11:18:53;;;;;;;5.13;2.40;;;12.80;99.90;;;;;;4921162;29;20521;-86
2022/06/06 11:21:27;;;;;;;5.80;2.70;;;12.90;99.90;;;;;;4936648;29;20066;-86
2022/06/06 11:24:02;;;;;;;4.72;2.28;;;13.00;99.90;;;;;;4920974;29;20051;-85
2022/06/06 11:26:52;;;;;;;4.97;3.20;;;13.40;99.90;;;;;;4936599;29;20538;-84
2022/06/06 11:29:45;;;;;;;3.17;1.95;;;14.00;99.90;;;;;;4915265;28;20251;-85
2022/06/06 11:32:41;;;;;;;4.05;3.20;;;15.00;99.90;;;;;;4964241;28;20539;-86
2022/06/06 11:35:48;;;;;;;3.03;1.75;;;16.00;99.90;;;;;;5051345;28;20422;-86
2022/06/06 11:38:23;;;;;;;3.72;2.25;;;17.00;99.90;;;;;;5033418;28;20057;-86
2022/06/06 11:40:57;;;;;;;4.47;2.78;;;16.50;99.90;;;;;;5033517;28;20068;-84
2022/06/06 11:43:47;;;;;;;5.25;2.50;;;15.70;99.90;;;;;;5017481;28;20049;-85
2022/06/06 11:46:50;;;;;;;8.07;2.00;;;15.10;99.90;;;;;;5033491;28;20060;-85
2022/06/06 11:49:21;;;;;;;4.65;2.17;;;14.80;99.90;;;;;;5035210;28;20061;-86
2022/06/06 11:51:49;;;;;;;2.50;1.65;;;15.00;99.90;;;;;;5037703;28;20568;-84
2022/06/06 11:54:48;;;;;;;5.00;1.77;;;15.90;99.90;;;;;;5037215;28;20048;-84
2022/06/06 11:57:26;;;;;;;3.38;1.05;;;17.70;99.90;;;;;;5037407;28;20036;-87
2022/06/06 12:00:21;;;;;;;2.50;1.10;;;18.90;99.90;;;;;;5053687;28;20122;-87
2022/06/06 12:03:11;;;;;;;2.47;0.90;;;20.00;99.90;;;;;;5037398;28;20072;-86
2022/06/06 12:06:00;;;;;;;2.70;0.80;;;20.60;99.90;;;;;;5020990;28;20045;-86
2022/06/06 12:08:59;;;;;;;1.73;0.70;;;20.40;99.90;;;;;;5037000;28;20060;-84
2022/06/06 12:12:02;;;;;;;2.38;0.70;;;20.20;99.90;;;;;;5036774;28;20103;-85
2022/06/06 12:14:46;;;;;;;1.30;0.60;;;20.10;99.90;;;;;;5040532;28;20056;-87
2022/06/06 12:17:37;;;;;;;1.55;0.60;;;20.30;99.90;;;;;;5058196;28;20053;-86
2022/06/06 12:20:21;;;;;;;2.42;0.60;;;20.40;99.90;;;;;;5058504;28;20053;-86
2022/06/06 12:22:59;;;;;;;1.08;0.60;;;20.30;99.90;;;;;;5058254;28;20048;-85
2022/06/06 12:25:42;;;;;;;1.15;0.50;;;20.30;99.90;;;;;;5074434;28;20569;-86
2022/06/06 12:28:35;;;;;;;1.58;0.73;;;20.50;99.90;;;;;;5074821;28;20040;-85
2022/06/06 12:31:35;;;;;;;1.25;0.70;;;20.60;99.90;;;;;;5034026;28;20064;-85
2022/06/06 12:34:28;;;;;;;1.67;0.80;;;20.60;99.90;;;;;;5055949;28;20138;-85
2022/06/06 12:37:09;;;;;;;1.98;0.75;;;20.20;99.90;;;;;;5054274;28;20130;-84
2022/06/06 12:39:40;;;;;;;1.85;0.80;;;19.80;99.90;;;;;;5054261;28;20060;-84
2022/06/06 12:42:18;;;;;;;2.78;1.17;;;19.60;99.90;;;;;;5054149;28;20406;-86
2022/06/06 12:45:04;;;;;;;8.18;0.93;;;19.40;99.90;;;;;;5037786;28;20052;-86
2022/06/06 12:47:59;;;;;;;2.20;0.90;;;19.10;99.90;;;;;;5053973;28;20261;-85
2022/06/06 12:50:41;;;;;;;3.90;1.00;;;19.40;99.90;;;;;;5037556;28;20430;-85
2022/06/06 12:53:29;;;;;;;4.20;1.25;;;19.50;99.90;;;;;;5054165;28;20496;-90
2022/06/06 12:56:23;;;;;;;2.50;0.90;;;19.60;99.90;;;;;;5053820;28;20045;-83
2022/06/06 12:59:13;;;;;;;3.22;0.80;;;19.60;99.90;;;;;;5037408;28;20147;-84
2022/06/06 13:01:51;;;;;;;2.05;0.57;;;19.60;99.90;;;;;;5053367;28;20060;-85
2022/06/06 13:04:43;;;;;;;2.75;0.60;;;19.20;99.90;;;;;;5054231;28;20136;-85
2022/06/06 13:07:32;;;;;;;2.03;0.40;;;19.00;99.90;;;;;;5036891;28;20048;-88
2022/06/06 13:10:17;;;;;;;1.33;0.50;;;18.90;99.90;;;;;;5037488;28;20391;-84
2022/06/06 13:13:05;;;;;;;1.15;0.57;;;18.70;99.90;;;;;;5053670;28;20127;-84
2022/06/06 13:15:51;;;;;;;1.35;0.65;;;18.80;99.90;;;;;;5036589;28;20532;-88
2022/06/06 13:18:23;;;;;;;2.53;0.80;;;18.80;99.90;;;;;;5054363;28;20056;-86
2022/06/06 13:20:51;;;;;;;1.85;0.52;;;19.00;99.90;;;;;;5053898;28;20136;-84
2022/06/06 13:23:42;;;;;;;1.83;0.70;;;18.90;99.90;;;;;;5037164;28;20375;-85
2022/06/06 13:26:23;;;;;;;5.82;0.82;;;18.80;99.90;;;;;;5054463;28;20041;-84
2022/06/06 13:28:55;;;;;;;2.00;0.98;;;18.60;99.90;;;;;;5038677;28;20045;-86
2022/06/06 13:31:54;;;;;;;2.22;1.02;;;18.40;99.90;;;;;;5055533;28;20561;-84
2022/06/06 13:34:34;;;;;;;1.80;1.17;;;18.10;99.90;;;;;;5054481;28;20059;-84
2022/06/06 13:37:16;;;;;;;2.65;1.40;;;17.60;99.90;;;;;;5055449;28;20114;-85
2022/06/06 13:40:00;;;;;;;5.97;1.58;;;16.90;99.90;;;;;;5053620;28;20049;-83
2022/06/06 13:42:36;;;;;;;3.45;1.50;;;16.30;99.90;;;;;;5053654;28;20151;-84
2022/06/06 13:45:39;;;;;;;2.80;1.90;;;15.90;99.90;;;;;;5054488;28;20047;-83
2022/06/06 13:48:23;;;;;;;4.88;2.17;;;15.50;99.90;;;;;;5054100;28;20142;-83
2022/06/06 13:51:07;;;;;;;2.70;2.50;;;15.10;99.90;;;;;;5062040;28;20060;-85
2022/06/06 13:54:10;;;;;;;3.13;2.25;;;15.00;99.90;;;;;;5036144;28;20065;-88
2022/06/06 13:56:41;;;;;;;4.20;2.80;;;14.90;99.90;;;;;;5036152;28;20386;-85
2022/06/06 13:59:37;;;;;;;5.53;3.13;;;14.80;99.90;;;;;;5054807;28;20174;-86
2022/06/06 14:02:14;;;;;;;5.10;3.20;;;14.70;99.90;;;;;;5072483;28;20151;-85